sensor_id;sensor_type;location;lat;lon;timestamp;P1;durP1;ratioP1;P2;durP2;ratioP2
14883;SDS011;7534;50.762;7.000;2024-01-16T00:01:44;9.27;;;6.50;;
14883;SDS011;7534;50.762;7.000;2024-01-16T00:04:10;9.83;;;6.33;;
14883;SDS011;7534;50.762;7.000;2024-01-16T00:06:39;10.13;;;6.67;;
14883;SDS011;7534;50.762;7.000;2024-01-16T00:09:06;9.80;;;7.40;;
14883;SDS011;7534;50.762;7.000;2024-01-16T00:11:32;9.83;;;7.00;;
14883;SDS011;7534;50.762;7.000;2024-01-16T00:13:58;8.10;;;6.73;;
14883;SDS011;7534;50.762;7.000;2024-01-16T00:16:24;10.17;;;6.63;;
14883;SDS011;7534;50.762;7.000;2024-01-16T00:18:50;12.10;;;7.30;;
14883;SDS011;7534;50.762;7.000;2024-01-16T00:21:15;11.80;;;7.53;;
14883;SDS011;7534;50.762;7.000;2024-01-16T00:23:41;10.83;;;6.43;;
14883;SDS011;7534;50.762;7.000;2024-01-16T00:26:08;11.20;;;7.23;;
14883;SDS011;7534;50.762;7.000;2024-01-16T00:28:33;11.30;;;7.33;;
14883;SDS011;7534;50.762;7.000;2024-01-16T00:31:00;13.07;;;6.97;;
14883;SDS011;7534;50.762;7.000;2024-01-16T00:33:25;11.97;;;6.93;;
14883;SDS011;7534;50.762;7.000;2024-01-16T00:35:52;10.23;;;6.90;;
14883;SDS011;7534;50.762;7.000;2024-01-16T00:38:18;9.83;;;6.53;;
14883;SDS011;7534;50.762;7.000;2024-01-16T00:40:43;11.57;;;6.93;;
14883;SDS011;7534;50.762;7.000;2024-01-16T00:43:09;9.10;;;6.60;;
14883;SDS011;7534;50.762;7.000;2024-01-16T00:45:35;9.53;;;6.67;;
14883;SDS011;7534;50.762;7.000;2024-01-16T00:48:01;10.20;;;6.77;;
14883;SDS011;7534;50.762;7.000;2024-01-16T00:50:27;9.50;;;6.10;;
14883;SDS011;7534;50.762;7.000;2024-01-16T00:52:52;13.60;;;7.10;;
14883;SDS011;7534;50.762;7.000;2024-01-16T00:55:18;9.30;;;6.57;;
14883;SDS011;7534;50.762;7.000;2024-01-16T00:57:44;7.67;;;6.27;;
14883;SDS011;7534;50.762;7.000;2024-01-16T01:00:10;9.27;;;6.13;;
14883;SDS011;7534;50.762;7.000;2024-01-16T01:02:36;12.17;;;6.03;;
14883;SDS011;7534;50.762;7.000;2024-01-16T01:05:02;10.93;;;6.73;;
14883;SDS011;7534;50.762;7.000;2024-01-16T01:07:28;10.30;;;6.03;;
14883;SDS011;7534;50.762;7.000;2024-01-16T01:09:54;12.00;;;6.50;;
14883;SDS011;7534;50.762;7.000;2024-01-16T01:12:19;10.77;;;6.57;;
14883;SDS011;7534;50.762;7.000;2024-01-16T01:14:45;9.90;;;6.17;;
14883;SDS011;7534;50.762;7.000;2024-01-16T01:17:11;9.80;;;6.33;;
14883;SDS011;7534;50.762;7.000;2024-01-16T01:19:37;9.13;;;6.63;;
14883;SDS011;7534;50.762;7.000;2024-01-16T01:22:02;11.53;;;6.13;;
14883;SDS011;7534;50.762;7.000;2024-01-16T01:24:28;9.37;;;5.57;;
14883;SDS011;7534;50.762;7.000;2024-01-16T01:26:54;11.03;;;6.17;;
14883;SDS011;7534;50.762;7.000;2024-01-16T01:29:20;8.70;;;5.77;;
14883;SDS011;7534;50.762;7.000;2024-01-16T01:31:46;11.87;;;5.90;;
14883;SDS011;7534;50.762;7.000;2024-01-16T01:34:13;8.90;;;5.77;;
14883;SDS011;7534;50.762;7.000;2024-01-16T01:36:38;6.97;;;5.30;;
14883;SDS011;7534;50.762;7.000;2024-01-16T01:39:04;8.97;;;5.77;;
14883;SDS011;7534;50.762;7.000;2024-01-16T01:41:30;8.60;;;5.83;;
14883;SDS011;7534;50.762;7.000;2024-01-16T01:43:56;12.50;;;5.53;;
14883;SDS011;7534;50.762;7.000;2024-01-16T01:46:22;14.50;;;5.57;;
14883;SDS011;7534;50.762;7.000;2024-01-16T01:48:48;9.60;;;5.70;;
14883;SDS011;7534;50.762;7.000;2024-01-16T01:51:17;9.23;;;5.90;;
14883;SDS011;7534;50.762;7.000;2024-01-16T01:53:44;8.37;;;5.27;;
14883;SDS011;7534;50.762;7.000;2024-01-16T01:56:14;8.47;;;6.13;;
14883;SDS011;7534;50.762;7.000;2024-01-16T01:58:53;9.50;;;5.83;;
14883;SDS011;7534;50.762;7.000;2024-01-16T02:01:21;9.77;;;6.43;;
14883;SDS011;7534;50.762;7.000;2024-01-16T02:03:47;9.13;;;6.53;;
14883;SDS011;7534;50.762;7.000;2024-01-16T02:06:16;12.50;;;7.57;;
14883;SDS011;7534;50.762;7.000;2024-01-16T02:08:42;13.53;;;7.67;;
14883;SDS011;7534;50.762;7.000;2024-01-16T02:11:08;17.33;;;7.93;;
14883;SDS011;7534;50.762;7.000;2024-01-16T02:13:35;10.07;;;7.47;;
14883;SDS011;7534;50.762;7.000;2024-01-16T02:16:01;9.97;;;7.87;;
14883;SDS011;7534;50.762;7.000;2024-01-16T02:18:28;15.73;;;8.40;;
14883;SDS011;7534;50.762;7.000;2024-01-16T02:20:59;13.30;;;7.93;;
14883;SDS011;7534;50.762;7.000;2024-01-16T02:23:29;13.60;;;7.83;;
14883;SDS011;7534;50.762;7.000;2024-01-16T02:25:56;10.47;;;7.87;;
14883;SDS011;7534;50.762;7.000;2024-01-16T02:28:22;15.17;;;7.70;;
14883;SDS011;7534;50.762;7.000;2024-01-16T02:30:47;12.43;;;7.77;;
14883;SDS011;7534;50.762;7.000;2024-01-16T02:33:13;16.37;;;7.47;;
14883;SDS011;7534;50.762;7.000;2024-01-16T02:35:39;14.80;;;7.77;;
14883;SDS011;7534;50.762;7.000;2024-01-16T02:38:05;12.73;;;7.00;;
14883;SDS011;7534;50.762;7.000;2024-01-16T02:40:30;13.23;;;8.33;;
14883;SDS011;7534;50.762;7.000;2024-01-16T02:42:56;12.50;;;8.10;;
14883;SDS011;7534;50.762;7.000;2024-01-16T02:45:21;14.67;;;8.07;;
14883;SDS011;7534;50.762;7.000;2024-01-16T02:47:47;11.17;;;7.57;;
14883;SDS011;7534;50.762;7.000;2024-01-16T02:50:13;18.53;;;7.80;;
14883;SDS011;7534;50.762;7.000;2024-01-16T02:52:39;11.80;;;7.50;;
14883;SDS011;7534;50.762;7.000;2024-01-16T02:55:05;12.90;;;7.57;;
14883;SDS011;7534;50.762;7.000;2024-01-16T02:57:31;14.10;;;7.77;;
14883;SDS011;7534;50.762;7.000;2024-01-16T02:59:57;13.43;;;7.70;;
14883;SDS011;7534;50.762;7.000;2024-01-16T03:02:23;11.80;;;6.93;;
14883;SDS011;7534;50.762;7.000;2024-01-16T03:04:49;12.40;;;6.67;;
14883;SDS011;7534;50.762;7.000;2024-01-16T03:07:15;10.90;;;7.23;;
14883;SDS011;7534;50.762;7.000;2024-01-16T03:09:41;11.50;;;7.70;;
14883;SDS011;7534;50.762;7.000;2024-01-16T03:12:07;12.23;;;7.97;;
14883;SDS011;7534;50.762;7.000;2024-01-16T03:14:32;10.30;;;7.37;;
14883;SDS011;7534;50.762;7.000;2024-01-16T03:17:02;11.70;;;7.37;;
14883;SDS011;7534;50.762;7.000;2024-01-16T03:19:28;12.47;;;7.23;;
14883;SDS011;7534;50.762;7.000;2024-01-16T03:21:54;9.07;;;6.60;;
14883;SDS011;7534;50.762;7.000;2024-01-16T03:24:20;13.17;;;6.87;;
14883;SDS011;7534;50.762;7.000;2024-01-16T03:26:45;14.53;;;6.77;;
14883;SDS011;7534;50.762;7.000;2024-01-16T03:29:11;13.63;;;6.60;;
14883;SDS011;7534;50.762;7.000;2024-01-16T03:31:38;12.63;;;6.27;;
14883;SDS011;7534;50.762;7.000;2024-01-16T03:34:03;9.07;;;6.10;;
14883;SDS011;7534;50.762;7.000;2024-01-16T03:36:29;11.33;;;6.43;;
14883;SDS011;7534;50.762;7.000;2024-01-16T03:38:55;10.70;;;6.83;;
14883;SDS011;7534;50.762;7.000;2024-01-16T03:41:21;11.10;;;7.40;;
14883;SDS011;7534;50.762;7.000;2024-01-16T03:43:49;9.57;;;7.43;;
14883;SDS011;7534;50.762;7.000;2024-01-16T03:46:15;12.17;;;7.50;;
14883;SDS011;7534;50.762;7.000;2024-01-16T03:48:41;11.20;;;8.07;;
14883;SDS011;7534;50.762;7.000;2024-01-16T03:51:07;13.17;;;8.50;;
14883;SDS011;7534;50.762;7.000;2024-01-16T03:53:33;11.87;;;7.87;;
14883;SDS011;7534;50.762;7.000;2024-01-16T03:55:59;12.17;;;8.63;;
14883;SDS011;7534;50.762;7.000;2024-01-16T03:58:25;11.20;;;8.17;;
14883;SDS011;7534;50.762;7.000;2024-01-16T04:00:50;13.63;;;8.47;;
14883;SDS011;7534;50.762;7.000;2024-01-16T04:03:18;11.57;;;8.77;;
14883;SDS011;7534;50.762;7.000;2024-01-16T04:05:44;13.63;;;8.77;;
14883;SDS011;7534;50.762;7.000;2024-01-16T04:08:09;10.87;;;7.87;;
14883;SDS011;7534;50.762;7.000;2024-01-16T04:10:37;13.40;;;8.10;;
14883;SDS011;7534;50.762;7.000;2024-01-16T04:13:03;12.50;;;8.03;;
14883;SDS011;7534;50.762;7.000;2024-01-16T04:15:29;13.33;;;8.67;;
14883;SDS011;7534;50.762;7.000;2024-01-16T04:17:54;12.57;;;7.67;;
14883;SDS011;7534;50.762;7.000;2024-01-16T04:20:20;11.47;;;8.50;;
14883;SDS011;7534;50.762;7.000;2024-01-16T04:22:46;13.43;;;7.93;;
14883;SDS011;7534;50.762;7.000;2024-01-16T04:25:12;9.77;;;7.27;;
14883;SDS011;7534;50.762;7.000;2024-01-16T04:27:37;10.50;;;7.87;;
14883;SDS011;7534;50.762;7.000;2024-01-16T04:30:03;10.53;;;7.53;;
14883;SDS011;7534;50.762;7.000;2024-01-16T04:32:30;9.43;;;7.23;;
14883;SDS011;7534;50.762;7.000;2024-01-16T04:34:58;11.03;;;7.60;;
14883;SDS011;7534;50.762;7.000;2024-01-16T04:37:23;14.03;;;7.77;;
14883;SDS011;7534;50.762;7.000;2024-01-16T04:39:49;12.03;;;7.40;;
14883;SDS011;7534;50.762;7.000;2024-01-16T04:42:15;13.50;;;7.30;;
14883;SDS011;7534;50.762;7.000;2024-01-16T04:44:43;12.73;;;7.30;;
14883;SDS011;7534;50.762;7.000;2024-01-16T04:47:09;13.03;;;7.83;;
14883;SDS011;7534;50.762;7.000;2024-01-16T04:49:36;9.97;;;7.13;;
14883;SDS011;7534;50.762;7.000;2024-01-16T04:52:02;12.93;;;7.77;;
14883;SDS011;7534;50.762;7.000;2024-01-16T04:54:28;10.67;;;7.53;;
14883;SDS011;7534;50.762;7.000;2024-01-16T04:56:54;12.27;;;7.37;;
14883;SDS011;7534;50.762;7.000;2024-01-16T04:59:19;13.17;;;7.43;;
14883;SDS011;7534;50.762;7.000;2024-01-16T05:01:45;13.07;;;7.83;;
14883;SDS011;7534;50.762;7.000;2024-01-16T05:04:11;11.73;;;7.30;;
14883;SDS011;7534;50.762;7.000;2024-01-16T05:06:36;13.10;;;8.00;;
14883;SDS011;7534;50.762;7.000;2024-01-16T05:09:02;11.53;;;7.33;;
14883;SDS011;7534;50.762;7.000;2024-01-16T05:11:28;12.30;;;7.67;;
14883;SDS011;7534;50.762;7.000;2024-01-16T05:13:54;10.23;;;6.53;;
14883;SDS011;7534;50.762;7.000;2024-01-16T05:16:25;8.60;;;6.70;;
14883;SDS011;7534;50.762;7.000;2024-01-16T05:18:52;11.07;;;7.10;;
14883;SDS011;7534;50.762;7.000;2024-01-16T05:21:19;11.33;;;7.43;;
14883;SDS011;7534;50.762;7.000;2024-01-16T05:23:45;9.90;;;6.90;;
14883;SDS011;7534;50.762;7.000;2024-01-16T05:26:11;12.90;;;7.00;;
14883;SDS011;7534;50.762;7.000;2024-01-16T05:28:38;10.90;;;6.27;;
14883;SDS011;7534;50.762;7.000;2024-01-16T05:31:04;11.03;;;6.60;;
14883;SDS011;7534;50.762;7.000;2024-01-16T05:33:30;10.43;;;6.23;;
14883;SDS011;7534;50.762;7.000;2024-01-16T05:35:56;9.13;;;5.57;;
14883;SDS011;7534;50.762;7.000;2024-01-16T05:38:22;8.50;;;5.63;;
14883;SDS011;7534;50.762;7.000;2024-01-16T05:40:48;11.70;;;6.67;;
14883;SDS011;7534;50.762;7.000;2024-01-16T05:43:14;10.13;;;6.27;;
14883;SDS011;7534;50.762;7.000;2024-01-16T05:45:39;9.23;;;5.67;;
14883;SDS011;7534;50.762;7.000;2024-01-16T05:48:05;10.90;;;5.80;;
14883;SDS011;7534;50.762;7.000;2024-01-16T05:50:36;9.40;;;5.80;;
14883;SDS011;7534;50.762;7.000;2024-01-16T05:53:02;9.93;;;5.57;;
14883;SDS011;7534;50.762;7.000;2024-01-16T05:55:28;8.47;;;6.00;;
14883;SDS011;7534;50.762;7.000;2024-01-16T05:57:57;13.37;;;6.00;;
14883;SDS011;7534;50.762;7.000;2024-01-16T06:00:24;9.40;;;5.23;;
14883;SDS011;7534;50.762;7.000;2024-01-16T06:02:50;14.20;;;5.70;;
14883;SDS011;7534;50.762;7.000;2024-01-16T06:05:16;10.77;;;5.20;;
14883;SDS011;7534;50.762;7.000;2024-01-16T06:07:41;9.30;;;5.07;;
14883;SDS011;7534;50.762;7.000;2024-01-16T06:10:07;8.20;;;5.17;;
14883;SDS011;7534;50.762;7.000;2024-01-16T06:12:36;7.70;;;4.50;;
14883;SDS011;7534;50.762;7.000;2024-01-16T06:15:02;8.87;;;5.03;;
14883;SDS011;7534;50.762;7.000;2024-01-16T06:17:28;8.17;;;4.93;;
14883;SDS011;7534;50.762;7.000;2024-01-16T06:19:53;11.60;;;5.30;;
14883;SDS011;7534;50.762;7.000;2024-01-16T06:22:19;7.97;;;5.47;;
14883;SDS011;7534;50.762;7.000;2024-01-16T06:24:45;9.80;;;5.30;;
14883;SDS011;7534;50.762;7.000;2024-01-16T06:27:11;8.83;;;4.43;;
14883;SDS011;7534;50.762;7.000;2024-01-16T06:29:43;8.77;;;4.00;;
14883;SDS011;7534;50.762;7.000;2024-01-16T06:32:10;8.73;;;4.70;;
14883;SDS011;7534;50.762;7.000;2024-01-16T06:34:36;8.30;;;4.50;;
14883;SDS011;7534;50.762;7.000;2024-01-16T06:37:01;12.17;;;4.30;;
14883;SDS011;7534;50.762;7.000;2024-01-16T06:39:27;11.10;;;4.67;;
14883;SDS011;7534;50.762;7.000;2024-01-16T06:41:53;7.57;;;4.37;;
14883;SDS011;7534;50.762;7.000;2024-01-16T06:44:18;10.97;;;4.83;;
14883;SDS011;7534;50.762;7.000;2024-01-16T06:46:44;10.77;;;3.97;;
14883;SDS011;7534;50.762;7.000;2024-01-16T06:49:10;8.27;;;3.97;;
14883;SDS011;7534;50.762;7.000;2024-01-16T06:51:36;6.03;;;3.67;;
14883;SDS011;7534;50.762;7.000;2024-01-16T06:54:01;7.87;;;3.77;;
14883;SDS011;7534;50.762;7.000;2024-01-16T06:56:28;7.27;;;3.87;;
14883;SDS011;7534;50.762;7.000;2024-01-16T06:58:54;8.23;;;4.00;;
14883;SDS011;7534;50.762;7.000;2024-01-16T07:01:20;7.07;;;3.87;;
14883;SDS011;7534;50.762;7.000;2024-01-16T07:03:46;6.03;;;3.40;;
14883;SDS011;7534;50.762;7.000;2024-01-16T07:06:11;6.13;;;3.80;;
14883;SDS011;7534;50.762;7.000;2024-01-16T07:08:38;8.10;;;3.57;;
14883;SDS011;7534;50.762;7.000;2024-01-16T07:11:04;6.50;;;3.20;;
14883;SDS011;7534;50.762;7.000;2024-01-16T07:13:33;7.50;;;2.93;;
14883;SDS011;7534;50.762;7.000;2024-01-16T07:15:59;7.70;;;3.70;;
14883;SDS011;7534;50.762;7.000;2024-01-16T07:18:26;9.33;;;3.20;;
14883;SDS011;7534;50.762;7.000;2024-01-16T07:20:53;8.17;;;3.27;;
14883;SDS011;7534;50.762;7.000;2024-01-16T07:23:18;6.13;;;3.30;;
14883;SDS011;7534;50.762;7.000;2024-01-16T07:25:45;5.87;;;3.33;;
14883;SDS011;7534;50.762;7.000;2024-01-16T07:28:11;8.17;;;3.70;;
14883;SDS011;7534;50.762;7.000;2024-01-16T07:30:37;6.53;;;2.93;;
14883;SDS011;7534;50.762;7.000;2024-01-16T07:33:03;10.90;;;2.90;;
14883;SDS011;7534;50.762;7.000;2024-01-16T07:35:29;5.73;;;2.70;;
14883;SDS011;7534;50.762;7.000;2024-01-16T07:37:55;6.33;;;2.77;;
14883;SDS011;7534;50.762;7.000;2024-01-16T07:40:20;7.83;;;3.00;;
14883;SDS011;7534;50.762;7.000;2024-01-16T07:42:46;5.97;;;2.77;;
14883;SDS011;7534;50.762;7.000;2024-01-16T07:45:12;6.70;;;2.90;;
14883;SDS011;7534;50.762;7.000;2024-01-16T07:47:37;5.63;;;2.97;;
14883;SDS011;7534;50.762;7.000;2024-01-16T07:50:03;6.93;;;3.13;;
14883;SDS011;7534;50.762;7.000;2024-01-16T07:52:30;6.85;;;3.15;;
14883;SDS011;7534;50.762;7.000;2024-01-16T07:54:55;5.30;;;2.60;;
14883;SDS011;7534;50.762;7.000;2024-01-16T07:57:21;5.40;;;2.67;;
14883;SDS011;7534;50.762;7.000;2024-01-16T07:59:46;5.77;;;2.33;;
14883;SDS011;7534;50.762;7.000;2024-01-16T08:02:12;6.70;;;2.87;;
14883;SDS011;7534;50.762;7.000;2024-01-16T08:04:38;6.43;;;2.50;;
14883;SDS011;7534;50.762;7.000;2024-01-16T08:07:04;5.50;;;2.80;;
14883;SDS011;7534;50.762;7.000;2024-01-16T08:09:29;5.10;;;2.33;;
14883;SDS011;7534;50.762;7.000;2024-01-16T08:11:55;3.87;;;2.37;;
14883;SDS011;7534;50.762;7.000;2024-01-16T08:14:20;7.33;;;2.83;;
14883;SDS011;7534;50.762;7.000;2024-01-16T08:16:46;7.37;;;3.13;;
14883;SDS011;7534;50.762;7.000;2024-01-16T08:19:13;5.57;;;2.67;;
14883;SDS011;7534;50.762;7.000;2024-01-16T08:21:39;10.07;;;2.80;;
14883;SDS011;7534;50.762;7.000;2024-01-16T08:24:04;7.87;;;3.17;;
14883;SDS011;7534;50.762;7.000;2024-01-16T08:26:30;5.93;;;2.50;;
14883;SDS011;7534;50.762;7.000;2024-01-16T08:28:56;6.10;;;2.63;;
14883;SDS011;7534;50.762;7.000;2024-01-16T08:31:22;8.60;;;3.00;;
14883;SDS011;7534;50.762;7.000;2024-01-16T08:33:48;5.83;;;2.87;;
14883;SDS011;7534;50.762;7.000;2024-01-16T08:36:14;7.93;;;2.80;;
14883;SDS011;7534;50.762;7.000;2024-01-16T08:38:40;5.30;;;2.63;;
14883;SDS011;7534;50.762;7.000;2024-01-16T08:41:06;7.40;;;2.77;;
14883;SDS011;7534;50.762;7.000;2024-01-16T08:43:35;6.43;;;2.83;;
14883;SDS011;7534;50.762;7.000;2024-01-16T08:46:01;5.57;;;3.07;;
14883;SDS011;7534;50.762;7.000;2024-01-16T08:48:28;7.37;;;3.10;;
14883;SDS011;7534;50.762;7.000;2024-01-16T08:50:54;7.40;;;3.00;;
14883;SDS011;7534;50.762;7.000;2024-01-16T08:53:20;5.37;;;2.93;;
14883;SDS011;7534;50.762;7.000;2024-01-16T08:55:48;3.90;;;3.00;;
14883;SDS011;7534;50.762;7.000;2024-01-16T08:58:14;5.43;;;2.85;;
14883;SDS011;7534;50.762;7.000;2024-01-16T09:00:40;5.82;;;3.30;;
14883;SDS011;7534;50.762;7.000;2024-01-16T09:03:05;5.80;;;3.40;;
14883;SDS011;7534;50.762;7.000;2024-01-16T09:05:32;4.53;;;2.80;;
14883;SDS011;7534;50.762;7.000;2024-01-16T09:08:01;7.20;;;2.50;;
14883;SDS011;7534;50.762;7.000;2024-01-16T09:10:27;3.83;;;2.40;;
14883;SDS011;7534;50.762;7.000;2024-01-16T09:12:54;3.93;;;2.70;;
14883;SDS011;7534;50.762;7.000;2024-01-16T09:15:20;6.40;;;2.90;;
14883;SDS011;7534;50.762;7.000;2024-01-16T09:17:46;4.80;;;2.83;;
14883;SDS011;7534;50.762;7.000;2024-01-16T09:20:11;4.20;;;2.63;;
14883;SDS011;7534;50.762;7.000;2024-01-16T09:22:37;4.30;;;2.60;;
14883;SDS011;7534;50.762;7.000;2024-01-16T09:25:03;5.80;;;2.97;;
14883;SDS011;7534;50.762;7.000;2024-01-16T09:27:30;5.07;;;2.67;;
14883;SDS011;7534;50.762;7.000;2024-01-16T09:29:56;5.03;;;2.85;;
14883;SDS011;7534;50.762;7.000;2024-01-16T09:32:21;7.23;;;2.93;;
14883;SDS011;7534;50.762;7.000;2024-01-16T09:34:47;4.13;;;2.50;;
14883;SDS011;7534;50.762;7.000;2024-01-16T09:37:13;7.33;;;3.10;;
14883;SDS011;7534;50.762;7.000;2024-01-16T09:39:40;4.33;;;2.53;;
14883;SDS011;7534;50.762;7.000;2024-01-16T09:42:06;6.93;;;3.07;;
14883;SDS011;7534;50.762;7.000;2024-01-16T09:44:33;6.53;;;2.90;;
14883;SDS011;7534;50.762;7.000;2024-01-16T09:46:59;5.93;;;2.60;;
14883;SDS011;7534;50.762;7.000;2024-01-16T09:49:29;6.37;;;2.90;;
14883;SDS011;7534;50.762;7.000;2024-01-16T09:51:54;7.43;;;2.80;;
14883;SDS011;7534;50.762;7.000;2024-01-16T09:54:20;3.27;;;2.50;;
14883;SDS011;7534;50.762;7.000;2024-01-16T09:56:46;6.57;;;2.77;;
14883;SDS011;7534;50.762;7.000;2024-01-16T09:59:17;4.47;;;2.47;;
14883;SDS011;7534;50.762;7.000;2024-01-16T10:01:44;6.13;;;3.00;;
14883;SDS011;7534;50.762;7.000;2024-01-16T10:04:10;5.80;;;2.60;;
14883;SDS011;7534;50.762;7.000;2024-01-16T10:06:36;5.10;;;2.67;;
14883;SDS011;7534;50.762;7.000;2024-01-16T10:09:03;5.47;;;2.77;;
14883;SDS011;7534;50.762;7.000;2024-01-16T10:11:29;6.17;;;2.60;;
14883;SDS011;7534;50.762;7.000;2024-01-16T10:13:58;6.10;;;2.60;;
14883;SDS011;7534;50.762;7.000;2024-01-16T10:16:35;3.77;;;2.37;;
14883;SDS011;7534;50.762;7.000;2024-01-16T10:19:47;7.00;;;2.80;;
14883;SDS011;7534;50.762;7.000;2024-01-16T10:22:20;4.50;;;2.30;;
14883;SDS011;7534;50.762;7.000;2024-01-16T10:24:49;5.23;;;2.77;;
14883;SDS011;7534;50.762;7.000;2024-01-16T10:27:26;6.20;;;3.20;;
14883;SDS011;7534;50.762;7.000;2024-01-16T10:29:55;6.03;;;2.93;;
14883;SDS011;7534;50.762;7.000;2024-01-16T10:32:37;8.03;;;3.07;;
14883;SDS011;7534;50.762;7.000;2024-01-16T10:35:05;6.30;;;2.70;;
14883;SDS011;7534;50.762;7.000;2024-01-16T10:37:45;5.03;;;2.70;;
14883;SDS011;7534;50.762;7.000;2024-01-16T10:40:16;6.53;;;2.83;;
14883;SDS011;7534;50.762;7.000;2024-01-16T10:43:08;7.13;;;3.20;;
14883;SDS011;7534;50.762;7.000;2024-01-16T10:45:33;6.50;;;2.83;;
14883;SDS011;7534;50.762;7.000;2024-01-16T10:50:29;5.80;;;3.07;;
14883;SDS011;7534;50.762;7.000;2024-01-16T10:52:55;6.27;;;2.77;;
14883;SDS011;7534;50.762;7.000;2024-01-16T10:55:27;4.00;;;2.30;;
14883;SDS011;7534;50.762;7.000;2024-01-16T10:57:55;7.73;;;2.47;;
14883;SDS011;7534;50.762;7.000;2024-01-16T11:00:23;5.53;;;3.00;;
14883;SDS011;7534;50.762;7.000;2024-01-16T11:03:06;5.37;;;2.60;;
14883;SDS011;7534;50.762;7.000;2024-01-16T11:05:37;6.30;;;3.10;;
14883;SDS011;7534;50.762;7.000;2024-01-16T11:08:04;4.73;;;2.30;;
14883;SDS011;7534;50.762;7.000;2024-01-16T11:10:31;4.67;;;2.33;;
14883;SDS011;7534;50.762;7.000;2024-01-16T11:13:01;8.27;;;2.50;;
14883;SDS011;7534;50.762;7.000;2024-01-16T11:15:29;5.13;;;2.40;;
14883;SDS011;7534;50.762;7.000;2024-01-16T11:17:55;5.60;;;2.40;;
14883;SDS011;7534;50.762;7.000;2024-01-16T11:20:22;5.83;;;2.63;;
14883;SDS011;7534;50.762;7.000;2024-01-16T11:22:49;4.77;;;2.30;;
14883;SDS011;7534;50.762;7.000;2024-01-16T11:25:15;4.77;;;2.30;;
14883;SDS011;7534;50.762;7.000;2024-01-16T11:27:46;5.87;;;2.40;;
14883;SDS011;7534;50.762;7.000;2024-01-16T11:30:28;4.03;;;2.07;;
14883;SDS011;7534;50.762;7.000;2024-01-16T11:32:58;7.53;;;2.57;;
14883;SDS011;7534;50.762;7.000;2024-01-16T11:35:34;6.70;;;2.30;;
14883;SDS011;7534;50.762;7.000;2024-01-16T11:38:15;7.77;;;2.70;;
14883;SDS011;7534;50.762;7.000;2024-01-16T11:40:42;4.67;;;2.30;;
14883;SDS011;7534;50.762;7.000;2024-01-16T11:46:00;5.53;;;2.60;;
14883;SDS011;7534;50.762;7.000;2024-01-16T11:48:34;4.37;;;2.30;;
14883;SDS011;7534;50.762;7.000;2024-01-16T11:51:00;5.63;;;2.67;;
14883;SDS011;7534;50.762;7.000;2024-01-16T11:53:50;3.87;;;2.10;;
14883;SDS011;7534;50.762;7.000;2024-01-16T11:56:25;6.57;;;2.30;;
14883;SDS011;7534;50.762;7.000;2024-01-16T11:59:14;5.03;;;2.50;;
14883;SDS011;7534;50.762;7.000;2024-01-16T12:02:02;6.77;;;2.30;;
14883;SDS011;7534;50.762;7.000;2024-01-16T12:04:37;3.60;;;2.20;;
14883;SDS011;7534;50.762;7.000;2024-01-16T12:07:03;4.80;;;2.30;;
14883;SDS011;7534;50.762;7.000;2024-01-16T12:09:28;4.10;;;2.27;;
14883;SDS011;7534;50.762;7.000;2024-01-16T12:11:58;6.47;;;2.70;;
14883;SDS011;7534;50.762;7.000;2024-01-16T12:14:28;6.45;;;2.90;;
14883;SDS011;7534;50.762;7.000;2024-01-16T12:17:11;5.63;;;2.70;;
14883;SDS011;7534;50.762;7.000;2024-01-16T12:19:38;4.27;;;2.60;;
14883;SDS011;7534;50.762;7.000;2024-01-16T12:22:10;4.67;;;2.50;;
14883;SDS011;7534;50.762;7.000;2024-01-16T12:24:38;6.87;;;2.60;;
14883;SDS011;7534;50.762;7.000;2024-01-16T12:27:05;6.40;;;2.57;;
14883;SDS011;7534;50.762;7.000;2024-01-16T12:29:31;7.50;;;2.87;;
14883;SDS011;7534;50.762;7.000;2024-01-16T12:32:10;4.90;;;2.57;;
14883;SDS011;7534;50.762;7.000;2024-01-16T12:34:48;6.13;;;3.13;;
14883;SDS011;7534;50.762;7.000;2024-01-16T12:37:15;5.03;;;3.03;;
14883;SDS011;7534;50.762;7.000;2024-01-16T12:39:42;7.20;;;3.00;;
14883;SDS011;7534;50.762;7.000;2024-01-16T12:42:09;7.88;;;3.17;;
14883;SDS011;7534;50.762;7.000;2024-01-16T12:44:35;4.63;;;2.80;;
14883;SDS011;7534;50.762;7.000;2024-01-16T12:47:01;6.03;;;2.87;;
14883;SDS011;7534;50.762;7.000;2024-01-16T12:49:27;7.50;;;3.07;;
14883;SDS011;7534;50.762;7.000;2024-01-16T12:54:46;6.77;;;2.50;;
14883;SDS011;7534;50.762;7.000;2024-01-16T12:57:17;5.13;;;2.60;;
14883;SDS011;7534;50.762;7.000;2024-01-16T12:59:45;6.23;;;2.70;;
14883;SDS011;7534;50.762;7.000;2024-01-16T13:02:19;4.70;;;2.50;;
14883;SDS011;7534;50.762;7.000;2024-01-16T13:04:57;5.97;;;2.77;;
14883;SDS011;7534;50.762;7.000;2024-01-16T13:07:25;4.20;;;2.67;;
14883;SDS011;7534;50.762;7.000;2024-01-16T13:10:05;5.47;;;2.90;;
14883;SDS011;7534;50.762;7.000;2024-01-16T13:12:36;5.38;;;3.00;;
14883;SDS011;7534;50.762;7.000;2024-01-16T13:15:03;6.40;;;3.17;;
14883;SDS011;7534;50.762;7.000;2024-01-16T13:17:33;4.63;;;3.10;;
14883;SDS011;7534;50.762;7.000;2024-01-16T13:20:00;4.53;;;3.10;;
14883;SDS011;7534;50.762;7.000;2024-01-16T13:22:28;5.20;;;2.83;;
14883;SDS011;7534;50.762;7.000;2024-01-16T13:24:54;4.17;;;2.87;;
14883;SDS011;7534;50.762;7.000;2024-01-16T13:27:20;5.50;;;2.80;;
14883;SDS011;7534;50.762;7.000;2024-01-16T13:29:47;6.67;;;2.97;;
14883;SDS011;7534;50.762;7.000;2024-01-16T13:32:12;5.40;;;3.10;;
14883;SDS011;7534;50.762;7.000;2024-01-16T13:34:38;6.83;;;2.90;;
14883;SDS011;7534;50.762;7.000;2024-01-16T13:37:04;5.47;;;3.03;;
14883;SDS011;7534;50.762;7.000;2024-01-16T13:39:30;4.80;;;2.80;;
14883;SDS011;7534;50.762;7.000;2024-01-16T13:42:02;4.60;;;2.53;;
14883;SDS011;7534;50.762;7.000;2024-01-16T13:44:31;4.30;;;2.90;;
14883;SDS011;7534;50.762;7.000;2024-01-16T13:46:57;3.83;;;2.83;;
14883;SDS011;7534;50.762;7.000;2024-01-16T13:49:23;5.37;;;2.80;;
14883;SDS011;7534;50.762;7.000;2024-01-16T13:51:48;5.93;;;2.87;;
14883;SDS011;7534;50.762;7.000;2024-01-16T13:54:14;5.33;;;3.23;;
14883;SDS011;7534;50.762;7.000;2024-01-16T13:56:40;7.50;;;3.00;;
14883;SDS011;7534;50.762;7.000;2024-01-16T13:59:07;7.13;;;3.03;;
14883;SDS011;7534;50.762;7.000;2024-01-16T14:01:33;4.33;;;2.70;;
14883;SDS011;7534;50.762;7.000;2024-01-16T14:03:59;8.73;;;3.17;;
14883;SDS011;7534;50.762;7.000;2024-01-16T14:06:25;5.57;;;2.63;;
14883;SDS011;7534;50.762;7.000;2024-01-16T14:08:50;6.73;;;3.10;;
14883;SDS011;7534;50.762;7.000;2024-01-16T14:11:16;3.90;;;2.30;;
14883;SDS011;7534;50.762;7.000;2024-01-16T14:13:42;4.80;;;2.90;;
14883;SDS011;7534;50.762;7.000;2024-01-16T14:16:08;3.67;;;2.73;;
14883;SDS011;7534;50.762;7.000;2024-01-16T14:18:34;6.13;;;3.23;;
14883;SDS011;7534;50.762;7.000;2024-01-16T14:21:01;3.40;;;2.60;;
14883;SDS011;7534;50.762;7.000;2024-01-16T14:23:29;7.33;;;3.20;;
14883;SDS011;7534;50.762;7.000;2024-01-16T14:25:56;5.97;;;2.80;;
14883;SDS011;7534;50.762;7.000;2024-01-16T14:28:22;4.07;;;2.50;;
14883;SDS011;7534;50.762;7.000;2024-01-16T14:30:51;7.17;;;3.10;;
14883;SDS011;7534;50.762;7.000;2024-01-16T14:33:17;4.37;;;2.90;;
14883;SDS011;7534;50.762;7.000;2024-01-16T14:35:42;4.50;;;3.00;;
14883;SDS011;7534;50.762;7.000;2024-01-16T14:38:09;5.47;;;2.77;;
14883;SDS011;7534;50.762;7.000;2024-01-16T14:40:35;4.67;;;3.03;;
14883;SDS011;7534;50.762;7.000;2024-01-16T14:43:01;5.07;;;2.87;;
14883;SDS011;7534;50.762;7.000;2024-01-16T14:45:30;6.37;;;3.77;;
14883;SDS011;7534;50.762;7.000;2024-01-16T14:47:56;6.00;;;4.03;;
14883;SDS011;7534;50.762;7.000;2024-01-16T14:50:22;5.93;;;3.20;;
14883;SDS011;7534;50.762;7.000;2024-01-16T14:52:49;6.50;;;3.50;;
14883;SDS011;7534;50.762;7.000;2024-01-16T14:55:15;4.77;;;3.17;;
14883;SDS011;7534;50.762;7.000;2024-01-16T14:57:42;6.20;;;3.20;;
14883;SDS011;7534;50.762;7.000;2024-01-16T15:00:09;6.83;;;3.47;;
14883;SDS011;7534;50.762;7.000;2024-01-16T15:02:43;4.10;;;3.00;;
14883;SDS011;7534;50.762;7.000;2024-01-16T15:05:09;3.80;;;2.80;;
14883;SDS011;7534;50.762;7.000;2024-01-16T15:07:37;5.27;;;3.00;;